createdAt,value
2023-04-17T00:00:28.847Z,100451.88
2023-04-17T00:01:34.446Z,100450.93
2023-04-17T00:02:39.789Z,100450.05
2023-04-17T00:03:44.275Z,100450.93
2023-04-17T00:04:47.847Z,100454.45
2023-04-17T00:05:52.502Z,100453.61
2023-04-17T00:06:55.419Z,100456.28
2023-04-17T00:07:59.472Z,100463.33
2023-04-17T00:09:02.677Z,100460.66
2023-04-17T00:10:07.800Z,100456.19
2023-04-17T00:11:10.420Z,100462.39
2023-04-17T00:12:13.189Z,100465.94
2023-04-17T00:13:16.923Z,100463.27
2023-04-17T00:14:19.889Z,100467.73
2023-04-17T00:15:22.776Z,100462.39
2023-04-17T00:16:26.570Z,100468.61
2023-04-17T00:17:29.681Z,100468.61
2023-04-17T00:18:32.590Z,100470.31
2023-04-17T00:19:35.449Z,100469.47
2023-04-17T00:20:38.345Z,100457.92
2023-04-17T00:21:41.404Z,100461.45
2023-04-17T00:22:44.584Z,100471.20
2023-04-17T00:23:47.747Z,100463.18
2023-04-17T00:24:50.603Z,100465.85
2023-04-17T00:25:54.686Z,100466.70
2023-04-17T00:26:59.009Z,100464.12
2023-04-17T00:28:02.142Z,100460.73
2023-04-17T00:29:05.283Z,100460.73
2023-04-17T00:30:09.270Z,100467.55
2023-04-17T00:31:12.767Z,100466.70
2023-04-17T00:32:15.684Z,100468.44
2023-04-17T00:33:18.883Z,100464.88
2023-04-17T00:34:21.897Z,100471.11
2023-04-17T00:35:27.068Z,100471.20
2023-04-17T00:36:31.342Z,100466.70
2023-04-17T00:37:35.637Z,100464.88
2023-04-17T00:38:39.372Z,100468.52
2023-04-17T00:39:42.253Z,100466.70
2023-04-17T00:40:45.777Z,100467.55
2023-04-17T00:41:48.649Z,100467.55
2023-04-17T00:42:53.953Z,100470.23
2023-04-17T00:43:56.630Z,100471.11
2023-04-17T00:45:00.061Z,100467.55
2023-04-17T00:46:04.664Z,100463.95
2023-04-17T00:47:07.559Z,100467.55
2023-04-17T00:48:10.439Z,100466.62
2023-04-17T00:49:13.424Z,100463.95
2023-04-17T00:50:16.965Z,100465.77
2023-04-17T00:51:19.723Z,100467.47
2023-04-17T00:52:29.381Z,100462.12
2023-04-17T00:53:33.019Z,100459.45
2023-04-17T00:54:35.964Z,100466.62
2023-04-17T00:55:39.941Z,100463.95
2023-04-17T00:56:43.496Z,100469.29
2023-04-17T00:57:48.226Z,100471.96
2023-04-17T00:58:51.746Z,100469.20
2023-04-17T00:59:56.709Z,100467.47
2023-04-17T01:01:00.940Z,100459.45
2023-04-17T01:02:04.172Z,100469.29
2023-04-17T01:03:08.131Z,100467.47
2023-04-17T01:04:13.188Z,100471.02
2023-04-17T01:05:17.105Z,100467.47
2023-04-17T01:06:20.150Z,100464.73
2023-04-17T01:07:24.224Z,100463.86
2023-04-17T01:08:27.724Z,100467.41
2023-04-17T01:09:30.546Z,100462.92
2023-04-17T01:10:33.466Z,100471.78
2023-04-17T01:11:36.774Z,100468.27
2023-04-17T01:12:41.755Z,100464.73
2023-04-17T01:15:00.527Z,100461.45
2023-04-17T01:16:05.701Z,100462.92
2023-04-17T01:17:10.709Z,100465.59
2023-04-17T01:18:14.137Z,100462.06
2023-04-17T01:19:17.725Z,100464.73
2023-04-17T01:20:22.378Z,100457.66
2023-04-17T01:21:25.354Z,100465.59
2023-04-17T01:22:28.720Z,100458.52
2023-04-17T01:23:48.080Z,100462.06
2023-04-17T01:24:50.835Z,100458.52
2023-04-17T01:25:54.503Z,100461.19
2023-04-17T01:26:59.042Z,100455.84
2023-04-17T01:28:03.486Z,100456.78
2023-04-17T01:29:06.269Z,100464.80
2023-04-17T01:30:11.137Z,100468.35
2023-04-17T01:31:15.842Z,100462.12
2023-04-17T01:32:20.269Z,100463.95
2023-04-17T01:33:23.365Z,100462.12
2023-04-17T01:34:26.174Z,100461.27
2023-04-17T01:35:29.110Z,100454.19
2023-04-17T01:36:32.892Z,100458.69
2023-04-17T01:37:36.603Z,100464.03
2023-04-17T01:38:40.900Z,100463.18
2023-04-17T01:39:43.925Z,100460.51
2023-04-17T01:40:46.723Z,100466.70
2023-04-17T01:41:49.452Z,100460.51
2023-04-17T01:42:52.373Z,100461.36
2023-04-17T01:43:55.124Z,100461.36
2023-04-17T01:44:58.338Z,100456.95
2023-04-17T01:46:03.230Z,100454.28
2023-04-17T01:47:06.160Z,100463.18
2023-04-17T01:48:09.326Z,100459.62
2023-04-17T01:49:14.356Z,100459.62
2023-04-17T01:50:18.821Z,100465.85
2023-04-17T01:51:21.759Z,100461.36
2023-04-17T01:52:25.191Z,100467.64
2023-04-17T01:53:31.640Z,100461.45
2023-04-17T01:54:35.886Z,100454.28
2023-04-17T01:55:39.073Z,100462.30
2023-04-17T01:56:42.554Z,100463.18
2023-04-17T01:57:45.395Z,100460.51
2023-04-17T01:58:48.248Z,100458.77
2023-04-17T01:59:51.910Z,100464.97
2023-04-17T02:00:55.154Z,100464.12
2023-04-17T02:01:59.331Z,100459.62
2023-04-17T02:03:02.496Z,100464.12
2023-04-17T02:04:05.847Z,100458.77
2023-04-17T02:05:09.300Z,100459.62
2023-04-17T02:06:12.924Z,100460.59
2023-04-17T02:07:16.790Z,100458.77
2023-04-17T02:08:19.604Z,100461.45
2023-04-17T02:09:23.546Z,100462.30
2023-04-17T02:10:26.718Z,100459.71
2023-04-17T02:11:29.782Z,100457.04
2023-04-17T02:12:32.464Z,100459.71
2023-04-17T02:13:35.597Z,100462.39
2023-04-17T02:14:38.847Z,100464.20
2023-04-17T02:15:42.272Z,100466.88
2023-04-17T02:16:45.569Z,100466.88
2023-04-17T02:17:48.328Z,100465.06
2023-04-17T02:18:51.439Z,100468.61
2023-04-17T02:19:54.238Z,100469.55
2023-04-17T02:20:57.271Z,100476.63
2023-04-17T02:22:00.316Z,100469.55
2023-04-17T02:23:04.242Z,100472.22
2023-04-17T02:24:08.452Z,100468.67
2023-04-17T02:25:11.281Z,100476.63
2023-04-17T02:26:14.506Z,100477.48
2023-04-17T02:27:19.121Z,100481.09
2023-04-17T02:28:21.991Z,100486.35
2023-04-17T02:29:24.857Z,100473.96
2023-04-17T02:30:28.611Z,100474.81
2023-04-17T02:31:32.272Z,100484.65
2023-04-17T02:32:35.466Z,100475.75
2023-04-17T02:33:39.157Z,100478.42
2023-04-17T02:34:42.473Z,100474.89
2023-04-17T02:35:46.025Z,100483.77
2023-04-17T02:36:49.332Z,100484.65
2023-04-17T02:37:53.266Z,100480.24
2023-04-17T02:38:57.702Z,100482.83
2023-04-17T02:40:00.692Z,100477.56
2023-04-17T02:41:04.799Z,100470.41
2023-04-17T02:42:09.964Z,100486.44
2023-04-17T02:43:13.695Z,100481.98
2023-04-17T02:44:16.701Z,100484.65
2023-04-17T02:45:19.962Z,100478.42
2023-04-17T02:46:24.507Z,100480.16
2023-04-17T02:47:27.527Z,100479.30
2023-04-17T02:48:31.021Z,100488.17
2023-04-17T02:49:35.154Z,100492.67
2023-04-17T02:50:38.969Z,100480.16
2023-04-17T02:51:43.591Z,100481.89
2023-04-17T02:52:46.516Z,100481.01
2023-04-17T02:53:49.553Z,100482.74
2023-04-17T02:54:52.636Z,100485.50
2023-04-17T02:55:56.416Z,100488.09
2023-04-17T02:57:01.395Z,100485.50
2023-04-17T02:58:05.441Z,100494.37
2023-04-17T02:59:08.246Z,100483.68
2023-04-17T03:00:14.783Z,100487.23
2023-04-17T03:01:19.415Z,100481.89
2023-04-17T03:02:23.513Z,100487.23
2023-04-17T03:03:27.092Z,100485.41
2023-04-17T03:04:30.015Z,100492.58
2023-04-17T03:05:33.439Z,100488.17
2023-04-17T03:06:37.029Z,100497.05
2023-04-17T03:07:40.933Z,100490.84
2023-04-17T03:08:44.940Z,100489.03
2023-04-17T03:09:48.127Z,100498.86
2023-04-17T03:10:51.036Z,100492.58
2023-04-17T03:11:54.870Z,100493.44
2023-04-17T03:12:58.778Z,100492.58
2023-04-17T03:14:02.451Z,100500.60
2023-04-17T03:15:08.881Z,100501.45
2023-04-17T03:16:12.255Z,100494.37
2023-04-17T03:17:16.004Z,100500.60
2023-04-17T03:18:19.064Z,100505.06
2023-04-17T03:19:21.871Z,100509.55
2023-04-17T03:20:25.036Z,100509.47
2023-04-17T03:21:27.629Z,100503.27
2023-04-17T03:22:30.690Z,100508.62
2023-04-17T03:23:34.149Z,100504.20
2023-04-17T03:24:37.868Z,100513.08
2023-04-17T03:25:41.221Z,100508.62
2023-04-17T03:26:44.247Z,100505.32
2023-04-17T03:27:48.778Z,100505.32
2023-04-17T03:28:52.034Z,100515.66
2023-04-17T03:29:57.625Z,100520.16
2023-04-17T03:31:01.372Z,100515.66
2023-04-17T03:32:06.561Z,100513.97
2023-04-17T03:34:22.898Z,100516.03
2023-04-17T03:35:26.905Z,100521.98
2023-04-17T03:36:31.092Z,100518.42
2023-04-17T03:37:34.235Z,100525.59
2023-04-17T03:38:38.187Z,100521.98
2023-04-17T03:39:42.760Z,100523.77
2023-04-17T03:40:47.348Z,100528.18
2023-04-17T03:41:50.282Z,100528.27
2023-04-17T03:42:53.479Z,100527.33
2023-04-17T03:43:56.210Z,100528.18
2023-04-17T03:44:59.208Z,100527.33
2023-04-17T03:46:02.371Z,100534.38
2023-04-17T03:47:06.453Z,100532.59
2023-04-17T03:48:09.611Z,100535.34
2023-04-17T03:49:14.252Z,100532.67
2023-04-17T03:50:17.548Z,100532.67
2023-04-17T03:51:22.171Z,100538.02
2023-04-17T03:53:36.710Z,100540.09
2023-04-17T03:54:42.341Z,100540.69
2023-04-17T03:55:45.548Z,100544.22
2023-04-17T03:56:50.331Z,100542.48
2023-04-17T03:57:55.024Z,100541.63
2023-04-17T03:58:59.714Z,100548.70
2023-04-17T04:00:05.813Z,100547.74
2023-04-17T04:01:14.451Z,100544.22
2023-04-17T04:02:20.406Z,100546.03
2023-04-17T04:03:24.721Z,100546.89
2023-04-17T04:04:28.290Z,100543.36
2023-04-17T04:05:33.506Z,100536.20
2023-04-17T04:06:37.215Z,100542.48
2023-04-17T04:07:40.584Z,100538.02
2023-04-17T04:08:44.774Z,100544.22
2023-04-17T04:09:48.745Z,100546.03
2023-04-17T04:10:51.776Z,100539.81
2023-04-17T04:11:56.954Z,100542.48
2023-04-17T04:12:59.983Z,100540.69
2023-04-17T04:14:03.356Z,100544.22
2023-04-17T04:15:07.926Z,100541.55
2023-04-17T04:16:11.384Z,100537.13
2023-04-17T04:17:15.196Z,100542.48
2023-04-17T04:18:18.697Z,100543.36
2023-04-17T04:19:21.682Z,100538.95
2023-04-17T04:20:24.736Z,100543.45
2023-04-17T04:21:30.344Z,100543.45
2023-04-17T04:22:34.286Z,100548.80
2023-04-17T04:23:40.601Z,100543.45
2023-04-17T04:24:43.971Z,100542.56
2023-04-17T04:25:50.297Z,100551.47
2023-04-17T04:26:55.899Z,100547.91
2023-04-17T04:28:00.754Z,100547.06
2023-04-17T04:29:04.872Z,100545.32
2023-04-17T04:30:12.326Z,100548.08
2023-04-17T04:31:19.177Z,100559.63
2023-04-17T04:32:24.897Z,100551.61
2023-04-17T04:33:28.968Z,100556.95
2023-04-17T04:34:32.578Z,100556.09
2023-04-17T04:35:36.303Z,100556.19
2023-04-17T04:36:42.008Z,100552.63
2023-04-17T04:37:50.694Z,100558.86
2023-04-17T04:38:55.307Z,100554.45
2023-04-17T04:41:19.194Z,100552.15
2023-04-17T04:42:24.186Z,100550.04
2023-04-17T04:43:33.903Z,100554.62
2023-04-17T04:44:37.121Z,100552.80
2023-04-17T04:45:40.549Z,100560.81
2023-04-17T04:46:43.694Z,100555.47
2023-04-17T04:47:47.049Z,100563.48
2023-04-17T04:48:51.184Z,100562.55
2023-04-17T04:49:54.178Z,100560.81
2023-04-17T04:50:57.142Z,100553.73
2023-04-17T04:52:00.682Z,100557.29
2023-04-17T04:53:05.767Z,100555.55
2023-04-17T04:54:10.458Z,100553.73
2023-04-17T04:55:15.511Z,100560.05
2023-04-17T04:56:20.760Z,100557.38
2023-04-17T04:57:25.392Z,100554.70
2023-04-17T04:58:30.374Z,100559.16
2023-04-17T04:59:37.969Z,100563.66
2023-04-17T05:00:51.480Z,100560.13
2023-04-17T05:01:56.866Z,100560.13
2023-04-17T05:03:00.103Z,100557.45
2023-04-17T05:04:03.466Z,100556.58
2023-04-17T05:05:10.403Z,100545.56
2023-04-17T05:06:14.113Z,100557.45
2023-04-17T05:07:18.842Z,100559.25
2023-04-17T05:08:22.052Z,100553.91
2023-04-17T05:09:27.006Z,100552.20
2023-04-17T05:10:30.910Z,100550.38
2023-04-17T05:11:35.563Z,100549.53
2023-04-17T05:12:39.523Z,100560.22
2023-04-17T05:14:56.135Z,100555.16
2023-04-17T05:16:02.003Z,100554.79
2023-04-17T05:17:05.745Z,100557.45
2023-04-17T05:18:09.235Z,100558.31
2023-04-17T05:19:12.045Z,100561.92
2023-04-17T05:20:18.233Z,100561.84
2023-04-17T05:21:24.232Z,100568.91
2023-04-17T05:22:27.805Z,100562.72
2023-04-17T05:23:32.466Z,100565.39
2023-04-17T05:24:35.149Z,100565.30
2023-04-17T05:25:38.164Z,100565.30
2023-04-17T05:26:42.144Z,100567.98
2023-04-17T05:27:45.595Z,100559.96
2023-04-17T05:28:49.693Z,100571.50
2023-04-17T05:29:55.538Z,100572.39
2023-04-17T05:30:58.941Z,100566.16
2023-04-17T05:32:03.977Z,100579.52
2023-04-17T05:33:27.153Z,100569.72
2023-04-17T05:34:32.051Z,100581.25
2023-04-17T05:35:35.995Z,100581.34
2023-04-17T05:36:38.911Z,100587.53
2023-04-17T05:37:41.801Z,100578.67
2023-04-17T05:38:46.171Z,100583.13
2023-04-17T05:39:49.205Z,100581.34
2023-04-17T05:40:53.904Z,100581.34
2023-04-17T05:41:57.169Z,100587.62
2023-04-17T05:43:08.268Z,100590.30
2023-04-17T05:44:11.332Z,100598.31
2023-04-17T05:45:15.109Z,100591.14
2023-04-17T05:46:19.529Z,100592.97
2023-04-17T05:47:23.725Z,100593.81
2023-04-17T05:48:27.611Z,100592.11
2023-04-17T05:49:30.449Z,100594.78
2023-04-17T05:50:34.106Z,100593.91
2023-04-17T05:51:38.752Z,100587.62
2023-04-17T05:52:43.093Z,100597.45
2023-04-17T05:53:48.139Z,100590.30
2023-04-17T05:54:51.889Z,100585.88
2023-04-17T05:55:55.798Z,100585.88
2023-04-17T05:57:02.302Z,100584.09
2023-04-17T05:58:16.824Z,100585.88
2023-04-17T05:59:10.927Z,100582.28
2023-04-17T06:00:17.153Z,100582.28
2023-04-17T06:01:22.891Z,100576.94
2023-04-17T06:02:27.773Z,100584.02
2023-04-17T06:03:31.424Z,100586.77
2023-04-17T06:04:46.257Z,100592.11
2023-04-17T06:05:49.493Z,100594.78
2023-04-17T06:06:52.549Z,100592.11
2023-04-17T06:07:55.604Z,100591.23
2023-04-17T06:08:59.728Z,100590.38
2023-04-17T06:10:02.761Z,100591.23
2023-04-17T06:11:05.779Z,100589.44
2023-04-17T06:12:10.605Z,100593.05
2023-04-17T06:13:13.533Z,100595.64
2023-04-17T06:15:31.975Z,100589.73
2023-04-17T06:16:36.316Z,100593.91
2023-04-17T06:17:39.979Z,100592.97
2023-04-17T06:18:44.134Z,100599.16
2023-04-17T06:19:47.056Z,100592.97
2023-04-17T06:20:50.116Z,100601.84
2023-04-17T06:21:53.050Z,100596.48
2023-04-17T06:22:59.440Z,100606.24
2023-04-17T06:24:02.645Z,100611.59
2023-04-17T06:25:07.006Z,100611.59
2023-04-17T06:26:11.774Z,100608.91
2023-04-17T06:27:16.077Z,100610.66
2023-04-17T06:28:19.112Z,100616.00
2023-04-17T06:29:23.142Z,100610.66
2023-04-17T06:30:28.887Z,100612.48
2023-04-17T06:31:34.626Z,100609.80
2023-04-17T06:32:44.758Z,100610.66
2023-04-17T06:33:50.261Z,100609.85
2023-04-17T06:34:59.379Z,100613.41
2023-04-17T06:36:02.144Z,100616.08
2023-04-17T06:37:07.227Z,100612.52
2023-04-17T06:38:12.776Z,100614.34
2023-04-17T06:39:16.289Z,100611.67
2023-04-17T06:40:19.363Z,100616.08
2023-04-17T06:41:22.181Z,100608.06
2023-04-17T06:42:25.045Z,100606.33
2023-04-17T06:43:30.206Z,100607.18
2023-04-17T06:44:34.914Z,100614.27
2023-04-17T06:45:39.616Z,100617.88
2023-04-17T06:46:44.090Z,100619.69
2023-04-17T06:47:47.725Z,100618.75
2023-04-17T06:48:54.265Z,100617.88
2023-04-17T06:50:00.208Z,100621.42
2023-04-17T06:51:03.508Z,100613.41
2023-04-17T06:52:07.085Z,100618.75
2023-04-17T06:53:10.730Z,100618.75
2023-04-17T06:54:14.275Z,100618.75
2023-04-17T06:55:17.954Z,100621.42
2023-04-17T06:56:21.983Z,100622.28
2023-04-17T06:57:24.588Z,100622.28
2023-04-17T06:58:27.254Z,100621.42
2023-04-17T06:59:30.404Z,100621.42
2023-04-17T07:00:33.539Z,100616.94
2023-04-17T07:01:37.601Z,100622.28
2023-04-17T07:02:41.633Z,100619.61
2023-04-17T07:03:45.563Z,100623.16
2023-04-17T07:04:48.597Z,100623.16
2023-04-17T07:05:51.464Z,100623.16
2023-04-17T07:06:54.208Z,100619.61
2023-04-17T07:07:57.060Z,100620.48
2023-04-17T07:09:01.087Z,100618.67
2023-04-17T07:10:05.912Z,100617.82
2023-04-17T07:11:08.737Z,100630.30
2023-04-17T07:12:12.577Z,100627.63
2023-04-17T07:13:15.239Z,100624.95
2023-04-17T07:14:18.585Z,100619.61
2023-04-17T07:15:21.308Z,100621.42
2023-04-17T07:16:24.399Z,100613.41
2023-04-17T07:17:27.820Z,100621.42
2023-04-17T07:18:30.637Z,100620.55
2023-04-17T07:19:33.899Z,100618.84
2023-04-17T07:20:37.843Z,100624.09
2023-04-17T07:21:40.759Z,100622.36
2023-04-17T07:22:43.499Z,100622.36
2023-04-17T07:23:46.850Z,100622.36
2023-04-17T07:24:49.942Z,100625.89
2023-04-17T07:25:53.214Z,100631.23
2023-04-17T07:26:58.374Z,100627.70
2023-04-17T07:28:02.616Z,100627.70
2023-04-17T07:29:07.171Z,100629.53
2023-04-17T07:30:11.382Z,100632.20
2023-04-17T07:31:14.754Z,100629.53
2023-04-17T07:32:17.544Z,100628.56
2023-04-17T07:33:21.166Z,100628.56
2023-04-17T07:34:25.037Z,100632.12
2023-04-17T07:35:27.957Z,100632.20
2023-04-17T07:36:30.884Z,100633.91
2023-04-17T07:37:34.203Z,100632.20
2023-04-17T07:38:38.611Z,100629.53
2023-04-17T07:39:41.974Z,100629.53
2023-04-17T07:40:45.684Z,100629.53
2023-04-17T07:41:48.885Z,100632.20
2023-04-17T07:42:52.313Z,100640.22
2023-04-17T07:43:58.406Z,100623.55
2023-04-17T07:45:01.265Z,100623.55
2023-04-17T07:46:05.525Z,100640.22
2023-04-17T07:47:08.370Z,100635.80
2023-04-17T07:48:11.342Z,100635.80
2023-04-17T07:49:14.642Z,100638.48
2023-04-17T07:50:20.685Z,100631.31
2023-04-17T07:51:23.503Z,100637.55
2023-04-17T07:52:26.337Z,100642.89
2023-04-17T07:53:29.289Z,100636.66
2023-04-17T07:54:33.353Z,100641.16
2023-04-17T07:55:36.630Z,100638.39
2023-04-17T07:56:40.180Z,100629.53
2023-04-17T07:57:42.993Z,100630.37
2023-04-17T07:58:46.481Z,100641.06
2023-04-17T07:59:50.383Z,100637.55
2023-04-17T08:00:53.366Z,100642.89
2023-04-17T08:01:57.004Z,100638.39
2023-04-17T08:03:02.709Z,100628.64
2023-04-17T08:04:06.494Z,100629.53
2023-04-17T08:05:10.875Z,100626.86
2023-04-17T08:06:15.462Z,100630.37
2023-04-17T08:07:19.699Z,100628.56
2023-04-17T08:08:24.126Z,100627.70
2023-04-17T08:09:26.985Z,100626.86
2023-04-17T08:10:31.600Z,100627.70
2023-04-17T08:11:40.123Z,100623.22
2023-04-17T08:12:39.681Z,100620.55
2023-04-17T08:13:42.543Z,100619.69
2023-04-17T08:14:48.003Z,100623.30
2023-04-17T08:15:51.977Z,100625.03
2023-04-17T08:16:55.076Z,100617.09
2023-04-17T08:17:58.573Z,100624.19
2023-04-17T08:19:01.619Z,100617.09
2023-04-17T08:21:20.526Z,100621.89
2023-04-17T08:22:23.963Z,100620.70
2023-04-17T08:23:28.314Z,100615.36
2023-04-17T08:24:31.325Z,100614.52
2023-04-17T08:25:35.206Z,100618.03
2023-04-17T08:26:38.476Z,100614.52
2023-04-17T08:27:41.876Z,100619.86
2023-04-17T08:28:46.688Z,100616.33
2023-04-17T08:29:50.025Z,100618.03
2023-04-17T08:30:54.608Z,100621.59
2023-04-17T08:32:13.188Z,100612.69
2023-04-17T08:33:02.727Z,100617.09
2023-04-17T08:34:13.606Z,100614.52
2023-04-17T08:35:12.857Z,100611.92
2023-04-17T08:36:16.119Z,100614.59
2023-04-17T08:37:19.394Z,100610.19
2023-04-17T08:38:22.238Z,100612.86
2023-04-17T08:39:28.685Z,100613.70
2023-04-17T08:40:31.290Z,100609.33
2023-04-17T08:41:37.628Z,100610.19
2023-04-17T08:42:41.506Z,100602.17
2023-04-17T08:43:44.453Z,100604.84
2023-04-17T08:44:47.302Z,100605.69
2023-04-17T08:45:55.168Z,100606.66
2023-04-17T08:46:58.402Z,100610.98
2023-04-17T08:48:01.211Z,100603.91
2023-04-17T08:49:04.115Z,100607.34
2023-04-17T08:50:12.040Z,100602.00
2023-04-17T08:51:15.993Z,100614.42
2023-04-17T08:52:18.582Z,100616.16
2023-04-17T08:53:22.250Z,100609.94
2023-04-17T08:54:26.268Z,100609.00
2023-04-17T08:55:30.402Z,100609.09
2023-04-17T08:56:33.614Z,100608.15
2023-04-17T08:57:59.449Z,100609.85
2023-04-17T08:59:02.607Z,100608.06
2023-04-17T09:00:08.658Z,100604.51
2023-04-17T09:01:19.321Z,100607.18
2023-04-17T09:02:26.875Z,100610.73
2023-04-17T09:03:29.639Z,100607.13
2023-04-17T09:04:45.020Z,100606.49
2023-04-17T09:05:48.589Z,100606.49
2023-04-17T09:06:55.302Z,100610.66
2023-04-17T09:09:52.124Z,100609.22
2023-04-17T09:10:55.325Z,100611.51
2023-04-17T09:12:10.596Z,100616.84
2023-04-17T09:14:29.950Z,100620.80
2023-04-17T09:15:33.482Z,100615.15
2023-04-17T09:16:37.141Z,100611.59
2023-04-17T09:17:40.099Z,100620.48
2023-04-17T09:18:43.508Z,100616.94
2023-04-17T09:20:07.254Z,100610.73
2023-04-17T09:21:10.259Z,100608.91
2023-04-17T09:22:20.655Z,100608.91
2023-04-17T09:23:23.448Z,100612.52
2023-04-17T09:24:33.985Z,100611.75
2023-04-17T09:25:38.523Z,100606.41
2023-04-17T09:26:42.324Z,100599.33
2023-04-17T09:27:46.157Z,100602.97
2023-04-17T09:29:11.771Z,100593.30
2023-04-17T09:30:15.936Z,100602.17
2023-04-17T09:32:49.594Z,100598.73
2023-04-17T09:35:26.164Z,100596.44
2023-04-17T09:36:30.313Z,100586.39
2023-04-17T09:39:00.555Z,100598.39
2023-04-17T09:41:27.937Z,100590.38
2023-04-17T09:42:31.079Z,100592.66
2023-04-17T09:43:44.135Z,100593.59
2023-04-17T09:44:47.707Z,100589.14
2023-04-17T09:45:51.756Z,100591.81
2023-04-17T09:47:08.228Z,100583.80
2023-04-17T09:48:12.319Z,100581.98
2023-04-17T09:49:41.266Z,100584.73
2023-04-17T09:50:44.196Z,100584.73
2023-04-17T09:51:49.307Z,100579.39
2023-04-17T09:53:07.763Z,100578.47
2023-04-17T09:54:12.256Z,100574.05
2023-04-17T09:55:16.968Z,100583.81
2023-04-17T09:56:21.595Z,100585.63
2023-04-17T09:57:24.412Z,100581.14
2023-04-17T09:58:27.691Z,100575.88
2023-04-17T09:59:31.275Z,100574.95
2023-04-17T10:00:35.142Z,100576.77
2023-04-17T10:01:39.874Z,100585.63
2023-04-17T10:02:43.846Z,100579.44
2023-04-17T10:03:48.129Z,100578.55
2023-04-17T10:04:51.020Z,100571.51
2023-04-17T10:05:54.222Z,100586.57
2023-04-17T10:06:57.945Z,100583.98
2023-04-17T10:08:01.013Z,100577.70
2023-04-17T10:09:06.460Z,100583.05
2023-04-17T10:10:11.141Z,100576.84
2023-04-17T10:11:14.408Z,100576.84
2023-04-17T10:12:18.001Z,100575.03
2023-04-17T10:15:50.771Z,100578.97
2023-04-17T10:18:23.669Z,100572.78
2023-04-17T10:20:47.961Z,100562.94
2023-04-17T10:23:30.952Z,100559.85
2023-04-17T10:24:35.707Z,100565.11
2023-04-17T10:25:38.882Z,100561.59
2023-04-17T10:26:41.902Z,100561.59
2023-04-17T10:27:45.707Z,100565.11
2023-04-17T10:28:50.006Z,100558.06
2023-04-17T10:29:55.427Z,100556.24
2023-04-17T10:31:00.420Z,100550.91
2023-04-17T10:32:13.124Z,100549.16
2023-04-17T10:33:22.526Z,100558.15
2023-04-17T10:34:37.755Z,100558.15
2023-04-17T10:35:40.772Z,100557.27
2023-04-17T10:36:47.942Z,100555.56
2023-04-17T10:38:02.729Z,100560.82
2023-04-17T10:39:16.056Z,100560.02
2023-04-17T10:40:21.771Z,100556.50
2023-04-17T10:41:24.602Z,100556.50
2023-04-17T10:42:29.128Z,100552.09
2023-04-17T10:43:32.037Z,100555.61
2023-04-17T10:44:40.701Z,100552.09
2023-04-17T10:47:17.710Z,100550.69
2023-04-17T10:48:23.927Z,100554.67
2023-04-17T10:49:27.432Z,100542.34
2023-04-17T10:50:30.922Z,100543.22
2023-04-17T10:51:39.853Z,100542.25
2023-04-17T10:52:46.002Z,100547.59
2023-04-17T10:53:58.928Z,100547.59
2023-04-17T10:55:08.342Z,100553.83
2023-04-17T10:56:14.664Z,100556.50
2023-04-17T10:57:21.462Z,100549.33
2023-04-17T10:58:31.943Z,100545.81
2023-04-17T10:59:30.731Z,100559.17
2023-04-17T11:00:36.850Z,100547.55
2023-04-17T11:01:56.086Z,100548.48
2023-04-17T11:03:02.291Z,100549.33
2023-04-17T11:04:05.590Z,100545.73
2023-04-17T11:05:09.512Z,100552.89
2023-04-17T11:06:12.726Z,100546.66
2023-04-17T11:07:17.210Z,100546.66
2023-04-17T11:08:20.587Z,100545.81
2023-04-17T11:09:27.355Z,100550.22
2023-04-17T11:10:30.722Z,100551.07
2023-04-17T11:11:44.163Z,100539.53
2023-04-17T11:12:48.876Z,100539.53
2023-04-17T11:13:52.525Z,100538.56
2023-04-17T11:15:03.804Z,100542.12
2023-04-17T11:16:08.460Z,100538.56
2023-04-17T11:17:12.340Z,100547.46
2023-04-17T11:18:15.686Z,100537.71
2023-04-17T11:19:21.257Z,100535.04
2023-04-17T11:20:25.190Z,100543.05
2023-04-17T11:21:28.573Z,100535.04
2023-04-17T11:22:33.424Z,100535.04
2023-04-17T11:23:36.966Z,100535.98
2023-04-17T11:24:40.393Z,100532.37
2023-04-17T11:25:44.328Z,100527.96
2023-04-17T11:26:47.253Z,100532.37
2023-04-17T11:30:33.287Z,100517.59
2023-04-17T11:31:36.935Z,100532.28
2023-04-17T11:32:42.887Z,100521.59
2023-04-17T11:33:47.558Z,100526.94
2023-04-17T11:34:54.721Z,100523.33
2023-04-17T11:35:58.208Z,100526.86
2023-04-17T11:37:03.087Z,100522.36
2023-04-17T11:38:10.716Z,100527.80
2023-04-17T11:39:17.101Z,100517.98
2023-04-17T11:40:22.214Z,100519.78
2023-04-17T11:41:27.678Z,100520.66
2023-04-17T11:42:31.230Z,100517.98
2023-04-17T11:43:38.199Z,100518.84
2023-04-17T11:44:44.501Z,100516.17
2023-04-17T11:45:51.575Z,100513.50
2023-04-17T11:46:57.069Z,100513.50
2023-04-17T11:48:01.928Z,100509.00
2023-04-17T11:50:17.699Z,100509.36
2023-04-17T11:52:34.625Z,100505.72
2023-04-17T11:53:37.575Z,100500.09
2023-04-17T11:57:27.239Z,100503.93
2023-04-17T11:58:31.653Z,100502.67
2023-04-17T11:59:37.119Z,100499.15
2023-04-17T12:00:41.357Z,100495.63
2023-04-17T12:01:53.269Z,100493.89
2023-04-17T12:02:57.293Z,100495.63
2023-04-17T12:04:02.311Z,100498.30
2023-04-17T12:06:38.141Z,100489.59
2023-04-17T12:07:40.953Z,100490.20
2023-04-17T12:08:52.321Z,100496.39
2023-04-17T12:09:57.042Z,100492.78
2023-04-17T12:11:00.166Z,100487.44
2023-04-17T12:12:08.014Z,100492.78
2023-04-17T12:13:11.261Z,100498.13
2023-04-17T12:14:15.334Z,100496.30
2023-04-17T12:15:18.285Z,100481.44
2023-04-17T12:16:24.208Z,100481.44
2023-04-17T12:17:27.989Z,100494.58
2023-04-17T12:18:30.720Z,100495.45
2023-04-17T12:19:33.889Z,100484.77
2023-04-17T12:21:51.892Z,100494.80
2023-04-17T12:22:56.157Z,100493.64
2023-04-17T12:23:58.752Z,100485.53
2023-04-17T12:25:01.405Z,100495.38
2023-04-17T12:26:04.142Z,100495.38
2023-04-17T12:27:07.392Z,100493.55
2023-04-17T12:28:10.896Z,100484.69
2023-04-17T12:29:15.362Z,100492.70
2023-04-17T12:30:19.033Z,100484.69
2023-04-17T12:31:22.740Z,100489.17
2023-04-17T12:32:25.872Z,100496.30
2023-04-17T12:33:28.654Z,100490.97
2023-04-17T12:34:33.148Z,100488.30
2023-04-17T12:35:49.556Z,100490.11
2023-04-17T12:36:53.794Z,100484.77
2023-04-17T12:37:56.645Z,100492.78
2023-04-17T12:39:00.164Z,100488.30
2023-04-17T12:40:04.351Z,100484.77
2023-04-17T12:41:08.926Z,100490.11
2023-04-17T12:42:12.679Z,100487.44
2023-04-17T12:43:16.303Z,100490.20
2023-04-17T12:44:19.162Z,100489.23
2023-04-17T12:45:22.919Z,100489.23
2023-04-17T12:46:26.529Z,100483.03
2023-04-17T12:47:31.529Z,100487.53
2023-04-17T12:48:35.635Z,100488.47
2023-04-17T12:49:38.533Z,100486.73
2023-04-17T12:51:55.874Z,100480.81
2023-04-17T12:53:00.327Z,100485.80
2023-04-17T12:54:04.424Z,100489.31